createdAt,value
2023-09-08T00:02:05.624Z,14.60
2023-09-08T00:04:32.290Z,16.98
2023-09-08T00:06:58.899Z,22.05
2023-09-08T00:09:25.555Z,16.95
2023-09-08T00:11:52.094Z,14.52
2023-09-08T00:14:18.878Z,13.82
2023-09-08T00:16:45.537Z,12.93
2023-09-08T00:19:12.988Z,15.68
2023-09-08T00:21:39.613Z,15.38
2023-09-08T00:24:06.457Z,14.38
2023-09-08T00:26:33.651Z,12.77
2023-09-08T00:29:00.238Z,16.33
2023-09-08T00:31:26.793Z,13.40
2023-09-08T00:33:53.434Z,12.73
2023-09-08T00:36:20.171Z,14.63
2023-09-08T00:38:46.728Z,15.07
2023-09-08T00:41:13.284Z,16.80
2023-09-08T00:43:39.823Z,13.75
2023-09-08T00:46:07.908Z,13.93
2023-09-08T00:48:35.623Z,13.13
2023-09-08T00:51:03.255Z,11.38
2023-09-08T00:53:30.221Z,15.13
2023-09-08T00:55:57.534Z,13.95
2023-09-08T00:58:24.117Z,14.98
2023-09-08T01:00:50.704Z,13.18
2023-09-08T01:03:17.439Z,14.32
2023-09-08T01:05:45.559Z,13.90
2023-09-08T01:08:12.166Z,12.65
2023-09-08T01:10:38.783Z,15.80
2023-09-08T01:13:05.312Z,12.90
2023-09-08T01:15:31.917Z,14.85
2023-09-08T01:17:59.708Z,13.48
2023-09-08T01:21:04.524Z,15.20
2023-09-08T01:24:26.052Z,16.40
2023-09-08T01:26:52.684Z,15.05
2023-09-08T01:29:20.409Z,14.82
2023-09-08T01:31:47.897Z,18.58
2023-09-08T01:34:14.720Z,18.00
2023-09-08T01:36:41.316Z,16.85
2023-09-08T01:39:07.892Z,14.95
2023-09-08T01:41:34.517Z,15.45
2023-09-08T01:44:01.989Z,16.98
2023-09-08T01:46:28.545Z,15.25
2023-09-08T01:48:55.206Z,16.10
2023-09-08T01:51:21.816Z,17.33
2023-09-08T01:53:48.336Z,15.30
2023-09-08T01:56:14.871Z,18.75
2023-09-08T01:58:41.409Z,16.73
2023-09-08T02:01:08.168Z,19.08
2023-09-08T02:03:35.556Z,15.80
2023-09-08T02:06:02.130Z,19.17
2023-09-08T02:08:28.658Z,15.98
2023-09-08T02:10:55.201Z,16.73
2023-09-08T02:13:22.960Z,17.92
2023-09-08T02:15:49.777Z,19.05
2023-09-08T02:18:16.444Z,20.33
2023-09-08T02:20:42.989Z,23.38
2023-09-08T02:23:09.666Z,23.50
2023-09-08T02:25:36.228Z,26.20
2023-09-08T02:28:03.049Z,24.65
2023-09-08T02:30:29.738Z,24.85
2023-09-08T02:32:57.284Z,25.83
2023-09-08T02:35:25.073Z,27.20
2023-09-08T02:37:52.820Z,26.70
2023-09-08T02:40:20.392Z,29.42
2023-09-08T02:42:47.445Z,29.92
2023-09-08T02:45:14.198Z,25.40
2023-09-08T02:47:40.848Z,28.25
2023-09-08T02:50:09.190Z,28.73
2023-09-08T02:52:35.762Z,26.92
2023-09-08T02:55:02.457Z,31.45
2023-09-08T02:57:29.013Z,26.13
2023-09-08T02:59:55.614Z,30.92
2023-09-08T03:02:22.529Z,26.33
2023-09-08T03:04:49.233Z,25.23
2023-09-08T03:07:15.924Z,26.40
2023-09-08T03:09:43.809Z,27.45
2023-09-08T03:12:10.390Z,27.77
2023-09-08T03:14:36.978Z,29.52
2023-09-08T03:17:03.729Z,28.52
2023-09-08T03:19:31.701Z,27.48
2023-09-08T03:21:58.244Z,27.50
2023-09-08T03:24:25.986Z,30.15
2023-09-08T03:26:52.558Z,25.38
2023-09-08T03:29:19.161Z,29.50
2023-09-08T03:31:45.841Z,25.73
2023-09-08T03:34:12.617Z,28.35
2023-09-08T03:36:39.425Z,26.30
2023-09-08T03:39:06.164Z,27.50
2023-09-08T03:41:32.651Z,27.25
2023-09-08T03:43:59.943Z,28.63
2023-09-08T03:46:26.614Z,36.90
2023-09-08T03:48:53.572Z,38.47
2023-09-08T03:51:20.382Z,34.47
2023-09-08T03:53:47.031Z,34.50
2023-09-08T03:56:13.604Z,32.65
2023-09-08T03:58:40.558Z,32.10
2023-09-08T04:01:07.152Z,35.85
2023-09-08T04:03:34.153Z,31.98
2023-09-08T04:06:01.077Z,39.45
2023-09-08T04:08:27.790Z,33.72
2023-09-08T04:10:54.408Z,31.80
2023-09-08T04:13:21.548Z,34.80
2023-09-08T04:15:48.204Z,36.17
2023-09-08T04:18:15.215Z,39.67
2023-09-08T04:20:41.824Z,37.33
2023-09-08T04:23:08.414Z,40.47
2023-09-08T04:25:34.918Z,40.42
2023-09-08T04:28:01.498Z,42.00
2023-09-08T04:30:28.267Z,37.95
2023-09-08T04:32:54.927Z,40.85
2023-09-08T04:35:21.445Z,46.13
2023-09-08T04:37:48.011Z,40.22
2023-09-08T04:40:14.535Z,41.20
2023-09-08T04:42:41.267Z,41.17
2023-09-08T04:45:09.041Z,38.50
2023-09-08T04:47:36.957Z,40.22
2023-09-08T04:50:05.553Z,36.25
2023-09-08T04:52:32.250Z,37.55
2023-09-08T04:55:00.208Z,36.33
2023-09-08T04:57:27.256Z,37.53
2023-09-08T04:59:57.772Z,38.13
2023-09-08T05:02:24.773Z,37.40
2023-09-08T05:04:51.733Z,35.83
2023-09-08T05:07:18.359Z,37.60
2023-09-08T05:09:44.848Z,38.75
2023-09-08T05:12:11.722Z,40.05
2023-09-08T05:14:38.531Z,42.95
2023-09-08T05:17:05.245Z,43.13
2023-09-08T05:19:32.241Z,39.65
2023-09-08T05:21:58.838Z,47.95
2023-09-08T05:24:25.874Z,46.55
2023-09-08T05:26:52.503Z,41.10
2023-09-08T05:29:20.388Z,40.88
2023-09-08T05:31:46.978Z,39.53
2023-09-08T05:34:14.428Z,43.67
2023-09-08T05:36:41.497Z,41.53
2023-09-08T05:39:08.729Z,38.10
2023-09-08T05:41:35.338Z,39.10
2023-09-08T05:44:03.339Z,37.72
2023-09-08T05:46:30.218Z,40.03
2023-09-08T05:48:58.124Z,40.13
2023-09-08T05:51:25.356Z,42.38
2023-09-08T05:53:53.807Z,41.85
2023-09-08T05:56:20.928Z,39.50
2023-09-08T05:58:47.682Z,39.10
2023-09-08T06:01:14.387Z,37.60
2023-09-08T06:03:41.062Z,38.45
2023-09-08T06:06:07.803Z,40.97
2023-09-08T06:08:34.657Z,40.50
2023-09-08T06:11:02.098Z,40.75
2023-09-08T06:13:28.881Z,39.63
2023-09-08T06:15:55.540Z,36.22
2023-09-08T06:18:22.085Z,42.28
2023-09-08T06:20:49.392Z,38.33
2023-09-08T06:23:17.067Z,37.75
2023-09-08T06:25:43.607Z,35.30
2023-09-08T06:28:10.462Z,34.08
2023-09-08T06:30:37.797Z,34.80
2023-09-08T06:33:04.587Z,31.55
2023-09-08T06:35:31.261Z,31.88
2023-09-08T06:37:57.824Z,35.25
2023-09-08T06:40:25.712Z,31.65
2023-09-08T06:42:52.423Z,31.30
2023-09-08T06:45:28.807Z,34.15
2023-09-08T06:47:55.513Z,31.38
2023-09-08T06:50:23.064Z,28.88
2023-09-08T06:52:53.040Z,32.42
2023-09-08T06:55:20.000Z,30.58
2023-09-08T06:57:48.952Z,27.13
2023-09-08T07:00:16.107Z,31.65
2023-09-08T07:02:42.863Z,25.42
2023-09-08T07:05:11.131Z,29.25
2023-09-08T07:07:38.500Z,29.80
2023-09-08T07:10:05.607Z,28.67
2023-09-08T07:12:32.336Z,29.60
2023-09-08T07:14:59.253Z,30.13
2023-09-08T07:17:26.384Z,28.88
2023-09-08T07:19:53.749Z,28.95
2023-09-08T07:22:21.466Z,27.80
2023-09-08T07:24:48.156Z,28.75
2023-09-08T07:27:16.925Z,29.90
2023-09-08T07:29:43.626Z,37.60
2023-09-08T07:32:10.478Z,30.85
2023-09-08T07:34:37.100Z,27.55
2023-09-08T07:37:04.060Z,28.92
2023-09-08T07:39:30.663Z,33.00
2023-09-08T07:41:59.088Z,27.98
2023-09-08T07:46:55.644Z,30.85
2023-09-08T07:49:22.298Z,27.85
2023-09-08T07:51:48.845Z,28.77
2023-09-08T07:54:15.657Z,33.20
2023-09-08T07:56:42.234Z,28.23
2023-09-08T07:59:08.927Z,30.85
2023-09-08T08:01:35.562Z,32.53
2023-09-08T08:04:02.234Z,27.42
2023-09-08T08:06:28.779Z,28.67
2023-09-08T08:08:55.380Z,27.95
2023-09-08T08:11:21.975Z,28.25
2023-09-08T08:13:48.671Z,29.98
2023-09-08T08:16:15.228Z,25.30
2023-09-08T08:18:42.010Z,27.85
2023-09-08T08:21:08.734Z,28.27
2023-09-08T08:23:35.443Z,33.30
2023-09-08T08:26:02.999Z,27.08
2023-09-08T08:28:29.532Z,27.30
2023-09-08T08:30:56.107Z,29.35
2023-09-08T08:33:22.877Z,23.67
2023-09-08T08:35:50.615Z,25.58
2023-09-08T08:38:17.187Z,25.48
2023-09-08T08:40:43.732Z,27.85
2023-09-08T08:43:10.614Z,27.27
2023-09-08T08:45:39.106Z,24.42
2023-09-08T08:48:08.432Z,27.17
2023-09-08T08:50:36.924Z,29.08
2023-09-08T08:53:03.658Z,26.20
2023-09-08T08:55:31.763Z,26.92
2023-09-08T08:58:05.082Z,23.50
2023-09-08T09:00:34.707Z,30.52
2023-09-08T09:03:12.099Z,27.63
2023-09-08T09:05:44.639Z,28.05
2023-09-08T09:08:14.304Z,23.85
2023-09-08T09:10:40.811Z,27.98
2023-09-08T09:13:07.341Z,28.05
2023-09-08T09:15:33.993Z,25.23
2023-09-08T09:18:07.783Z,26.27
2023-09-08T09:20:35.322Z,25.45
2023-09-08T09:23:02.091Z,28.20
2023-09-08T09:25:31.298Z,29.10
2023-09-08T09:28:00.245Z,29.77
2023-09-08T09:30:27.720Z,28.33
2023-09-08T09:33:05.307Z,25.95
2023-09-08T09:35:49.267Z,35.17
2023-09-08T09:38:15.806Z,25.10
2023-09-08T09:40:42.465Z,27.05
2023-09-08T09:43:09.570Z,22.77
2023-09-08T09:45:38.002Z,23.33
2023-09-08T09:48:05.729Z,25.23
2023-09-08T09:50:34.169Z,28.23
2023-09-08T09:53:03.127Z,29.10
2023-09-08T09:55:29.876Z,28.58
2023-09-08T09:57:58.237Z,22.50
2023-09-08T10:00:26.820Z,29.88
2023-09-08T10:02:54.982Z,26.08
2023-09-08T10:05:22.069Z,25.55
2023-09-08T10:07:48.865Z,23.88
2023-09-08T10:10:16.749Z,30.85
2023-09-08T10:12:50.190Z,32.15
2023-09-08T10:15:21.600Z,30.38
2023-09-08T10:17:53.762Z,26.83
2023-09-08T10:20:21.334Z,24.77
2023-09-08T10:22:53.882Z,26.52
2023-09-08T10:25:22.306Z,24.42
2023-09-08T10:27:49.581Z,25.67
2023-09-08T10:30:17.535Z,24.83
2023-09-08T10:32:44.507Z,27.08
2023-09-08T10:35:11.631Z,21.90
2023-09-08T10:37:38.145Z,25.92
2023-09-08T10:40:22.385Z,26.50
2023-09-08T10:42:49.698Z,25.45
2023-09-08T10:45:18.976Z,20.88
2023-09-08T10:47:48.592Z,23.65
2023-09-08T10:50:19.425Z,26.60
2023-09-08T10:53:04.613Z,24.35
2023-09-08T10:55:40.321Z,25.67
2023-09-08T10:58:06.807Z,24.13
2023-09-08T11:00:52.504Z,27.58
2023-09-08T11:03:28.480Z,31.33
2023-09-08T11:05:55.256Z,28.15
2023-09-08T11:08:22.452Z,23.25
2023-09-08T11:10:49.941Z,25.70
2023-09-08T11:13:16.454Z,23.52
2023-09-08T11:15:43.176Z,30.30
2023-09-08T11:18:10.144Z,26.52
2023-09-08T11:20:36.796Z,25.00
2023-09-08T11:23:04.487Z,22.75
2023-09-08T11:25:31.085Z,22.58
2023-09-08T11:27:58.219Z,22.42
2023-09-08T11:30:26.206Z,25.02
2023-09-08T11:32:52.851Z,25.42
2023-09-08T11:35:19.741Z,24.60
2023-09-08T11:37:46.226Z,20.25
2023-09-08T11:40:13.684Z,23.77
2023-09-08T11:42:41.689Z,18.50
2023-09-08T11:45:08.750Z,22.10
2023-09-08T11:47:35.283Z,19.10
2023-09-08T11:50:03.488Z,19.50
2023-09-08T11:52:29.998Z,18.13
2023-09-08T11:55:06.312Z,22.00
2023-09-08T11:57:34.562Z,22.45
2023-09-08T12:00:02.574Z,22.90
2023-09-08T12:02:35.172Z,18.20
2023-09-08T12:05:02.549Z,18.52
2023-09-08T12:07:29.460Z,15.30
2023-09-08T12:09:56.102Z,18.90
2023-09-08T12:12:22.695Z,20.55
2023-09-08T12:14:49.158Z,18.58
2023-09-08T12:17:15.743Z,12.32
2023-09-08T12:19:42.269Z,11.90
2023-09-08T12:22:09.020Z,14.68
2023-09-08T12:24:49.712Z,13.23
2023-09-08T12:27:17.577Z,12.90
2023-09-08T12:30:04.619Z,12.85
2023-09-08T12:32:32.855Z,12.82
2023-09-08T12:35:00.547Z,15.38
2023-09-08T12:37:27.341Z,18.67
2023-09-08T12:39:54.282Z,16.48
2023-09-08T12:42:21.056Z,15.35
2023-09-08T12:44:48.733Z,14.50
2023-09-08T12:47:15.389Z,13.48
2023-09-08T12:49:41.923Z,11.95
2023-09-08T12:52:08.640Z,14.07
2023-09-08T12:54:35.149Z,12.77
2023-09-08T12:57:03.775Z,12.38
2023-09-08T12:59:31.872Z,11.68
2023-09-08T13:01:58.359Z,8.57
2023-09-08T13:04:24.944Z,18.35
2023-09-08T13:06:52.013Z,12.90
2023-09-08T13:09:18.668Z,9.63
2023-09-08T13:11:45.191Z,13.52
2023-09-08T13:14:11.750Z,13.95
2023-09-08T13:16:38.322Z,16.30
2023-09-08T13:19:05.217Z,12.75
2023-09-08T13:21:31.761Z,11.77
2023-09-08T13:23:58.283Z,11.73
2023-09-08T13:26:24.854Z,11.15
2023-09-08T13:28:51.434Z,14.57
2023-09-08T13:31:18.072Z,12.18
2023-09-08T13:33:45.008Z,10.30
2023-09-08T13:36:11.507Z,12.95
2023-09-08T13:38:38.692Z,13.32
2023-09-08T13:41:06.272Z,9.90
2023-09-08T13:43:32.897Z,12.68
2023-09-08T13:45:59.352Z,19.70
2023-09-08T13:48:26.311Z,25.88
2023-09-08T13:50:54.306Z,13.05
2023-09-08T13:53:21.906Z,27.15
2023-09-08T13:55:51.282Z,22.13
2023-09-08T13:58:20.592Z,21.33
2023-09-08T14:00:52.254Z,21.00
2023-09-08T14:05:52.840Z,18.10
2023-09-08T14:08:28.850Z,22.30
2023-09-08T14:13:37.093Z,12.50
2023-09-08T14:16:04.176Z,13.43
2023-09-08T14:18:31.008Z,9.48
2023-09-08T14:20:57.623Z,11.25
2023-09-08T14:23:24.156Z,12.85
2023-09-08T14:25:50.764Z,12.60
2023-09-08T14:28:17.385Z,12.88
2023-09-08T14:30:43.981Z,12.23
2023-09-08T14:33:10.642Z,15.85
2023-09-08T14:35:42.818Z,16.52
2023-09-08T14:38:09.487Z,13.93
2023-09-08T14:40:36.141Z,18.95
2023-09-08T14:43:02.737Z,12.57
2023-09-08T14:45:29.261Z,12.40
2023-09-08T14:47:56.379Z,20.17
2023-09-08T14:50:24.220Z,7.88
2023-09-08T14:52:50.823Z,11.02
2023-09-08T14:55:17.379Z,10.13
2023-09-08T14:57:43.959Z,10.07
2023-09-08T15:00:10.969Z,10.80
2023-09-08T15:02:37.582Z,8.85
2023-09-08T15:05:04.346Z,12.90
2023-09-08T15:07:30.855Z,11.75
2023-09-08T15:09:57.344Z,11.27
2023-09-08T15:12:23.924Z,8.85
2023-09-08T15:14:50.444Z,8.05
2023-09-08T15:17:16.983Z,9.80
2023-09-08T15:19:43.684Z,10.20
2023-09-08T15:22:10.207Z,10.32
2023-09-08T15:24:37.496Z,7.72
2023-09-08T15:27:04.419Z,7.07
2023-09-08T15:29:31.168Z,6.32
2023-09-08T15:31:57.893Z,10.10
2023-09-08T15:34:27.119Z,10.57
2023-09-08T15:36:54.115Z,12.40
2023-09-08T15:39:20.718Z,8.82
2023-09-08T15:41:47.424Z,5.78
2023-09-08T15:44:14.010Z,9.68
2023-09-08T15:46:40.826Z,6.38
2023-09-08T15:49:07.451Z,8.55
2023-09-08T15:51:34.121Z,12.73
2023-09-08T15:54:00.642Z,11.40
2023-09-08T15:56:27.178Z,14.35
2023-09-08T15:58:53.659Z,11.60
2023-09-08T16:01:20.417Z,9.70
2023-09-08T16:03:47.125Z,9.60
2023-09-08T16:06:14.037Z,11.90
2023-09-08T16:08:40.666Z,7.55
2023-09-08T16:11:07.773Z,9.75
2023-09-08T16:13:34.451Z,7.55
2023-09-08T16:16:01.373Z,9.98
2023-09-08T16:18:28.022Z,9.82
2023-09-08T16:20:54.610Z,7.28
2023-09-08T16:23:21.170Z,6.97
2023-09-08T16:25:47.973Z,9.15
2023-09-08T16:28:14.584Z,9.43
2023-09-08T16:30:41.172Z,9.70
2023-09-08T16:33:08.033Z,6.95
2023-09-08T16:35:35.394Z,8.32
2023-09-08T16:38:01.890Z,9.65
2023-09-08T16:40:28.403Z,9.32
2023-09-08T16:42:54.907Z,11.13
2023-09-08T16:45:21.511Z,15.73
2023-09-08T16:47:48.073Z,12.85
2023-09-08T16:50:14.678Z,10.85
2023-09-08T16:52:41.238Z,8.30
2023-09-08T16:55:08.007Z,12.20
2023-09-08T16:57:34.498Z,10.02
2023-09-08T17:00:01.195Z,10.60
2023-09-08T17:02:28.478Z,9.82
2023-09-08T17:04:55.140Z,11.45
2023-09-08T17:07:21.751Z,9.23
2023-09-08T17:09:48.364Z,11.68
2023-09-08T17:12:14.931Z,9.45
2023-09-08T17:14:41.442Z,11.45
2023-09-08T17:17:07.957Z,13.52
2023-09-08T17:19:34.436Z,15.35
2023-09-08T17:22:01.093Z,10.35
2023-09-08T17:24:27.751Z,10.60
2023-09-08T17:26:57.948Z,12.65
2023-09-08T17:29:24.569Z,14.23
2023-09-08T17:31:51.068Z,13.65
2023-09-08T17:34:21.790Z,9.00
2023-09-08T17:36:52.827Z,11.23
2023-09-08T17:39:19.340Z,13.88
2023-09-08T17:41:45.827Z,12.70
2023-09-08T17:44:12.387Z,11.85
2023-09-08T17:46:39.439Z,10.55
2023-09-08T17:49:06.309Z,10.80
2023-09-08T17:51:32.812Z,13.70
2023-09-08T17:53:59.342Z,13.82
2023-09-08T17:56:25.904Z,13.02
2023-09-08T17:58:52.468Z,15.93
2023-09-08T18:01:19.081Z,16.88
2023-09-08T18:03:48.846Z,12.77
2023-09-08T18:06:15.920Z,29.40
2023-09-08T18:08:42.444Z,20.45
2023-09-08T18:11:09.001Z,21.27
2023-09-08T18:13:35.755Z,16.90
2023-09-08T18:16:04.585Z,17.42
2023-09-08T18:18:31.938Z,13.90
2023-09-08T18:20:58.498Z,18.77
2023-09-08T18:23:25.019Z,14.23
2023-09-08T18:25:53.396Z,11.35
2023-09-08T18:28:20.086Z,12.38
2023-09-08T18:30:46.626Z,10.90
2023-09-08T18:33:13.179Z,13.55
2023-09-08T18:35:39.760Z,11.73
2023-09-08T18:38:06.560Z,13.85
2023-09-08T18:40:33.531Z,16.65
2023-09-08T18:43:00.516Z,13.55
2023-09-08T18:45:27.118Z,11.25
2023-09-08T18:47:53.679Z,12.85
2023-09-08T18:50:20.230Z,15.00
2023-09-08T18:52:46.756Z,12.95
2023-09-08T18:55:13.235Z,13.75
2023-09-08T18:57:39.734Z,14.30
2023-09-08T19:00:07.006Z,10.55
2023-09-08T19:02:33.861Z,16.30
2023-09-08T19:05:00.610Z,12.70
2023-09-08T19:07:28.381Z,13.43
2023-09-08T19:09:54.900Z,13.75
2023-09-08T19:12:21.485Z,13.25
2023-09-08T19:14:53.302Z,13.07
2023-09-08T19:17:19.842Z,15.07
2023-09-08T19:19:46.415Z,13.75
2023-09-08T19:22:13.267Z,12.63
2023-09-08T19:24:42.725Z,18.58
2023-09-08T19:27:09.258Z,14.43
2023-09-08T19:29:35.745Z,16.42
2023-09-08T19:32:02.459Z,12.70
2023-09-08T19:34:29.079Z,17.13
2023-09-08T19:36:55.585Z,16.00
2023-09-08T19:39:22.498Z,16.30
2023-09-08T19:41:49.125Z,11.27
2023-09-08T19:44:15.612Z,15.65
2023-09-08T19:46:42.246Z,17.38
2023-09-08T19:49:08.783Z,13.98
2023-09-08T19:51:35.390Z,12.73
2023-09-08T19:54:02.092Z,12.45
2023-09-08T19:56:29.545Z,14.88
2023-09-08T19:58:56.001Z,16.65
2023-09-08T20:01:22.813Z,15.35
2023-09-08T20:03:49.344Z,14.32
2023-09-08T20:06:16.584Z,15.25
2023-09-08T20:08:43.192Z,14.23
2023-09-08T20:11:10.109Z,13.20
2023-09-08T20:13:36.984Z,18.52
2023-09-08T20:16:06.106Z,12.35
2023-09-08T20:18:33.238Z,18.08
2023-09-08T20:21:01.074Z,13.13
2023-09-08T20:23:27.606Z,16.30
2023-09-08T20:25:54.146Z,16.13
2023-09-08T20:28:20.689Z,17.80
2023-09-08T20:31:04.972Z,13.68
2023-09-08T20:33:38.341Z,16.80
2023-09-08T20:36:05.824Z,17.45
2023-09-08T20:38:32.447Z,17.55
2023-09-08T20:40:59.141Z,19.42
2023-09-08T20:43:25.703Z,16.42
2023-09-08T20:45:55.804Z,16.27
2023-09-08T20:48:23.167Z,16.35
2023-09-08T20:50:59.210Z,18.30
2023-09-08T20:53:25.718Z,13.68
2023-09-08T20:55:52.245Z,17.60
2023-09-08T20:58:18.854Z,16.83
2023-09-08T21:00:45.435Z,18.05
2023-09-08T21:03:12.371Z,19.60
2023-09-08T21:05:38.935Z,22.85
2023-09-08T21:08:05.966Z,19.45
2023-09-08T21:10:33.201Z,17.80
2023-09-08T21:12:59.775Z,20.95
2023-09-08T21:15:26.370Z,20.48
2023-09-08T21:17:53.068Z,26.23
2023-09-08T21:20:19.712Z,20.50
2023-09-08T21:22:46.292Z,16.17
2023-09-08T21:25:12.810Z,30.17
2023-09-08T21:27:39.292Z,22.17
2023-09-08T21:30:06.661Z,16.92
2023-09-08T21:32:33.304Z,18.65
2023-09-08T21:34:59.897Z,18.75
2023-09-08T21:37:26.490Z,18.70
2023-09-08T21:39:52.994Z,18.00
2023-09-08T21:42:19.601Z,21.98
2023-09-08T21:44:46.384Z,19.95
2023-09-08T21:47:12.951Z,17.77
2023-09-08T21:49:39.523Z,18.75
2023-09-08T21:52:06.381Z,17.38
2023-09-08T21:54:32.920Z,17.25
2023-09-08T21:56:59.458Z,16.58
2023-09-08T21:59:26.208Z,21.83
2023-09-08T22:01:52.770Z,16.50
2023-09-08T22:04:19.445Z,15.85
2023-09-08T22:06:46.244Z,17.73
2023-09-08T22:09:12.737Z,17.92
2023-09-08T22:11:39.267Z,14.77
2023-09-08T22:14:05.752Z,18.98
2023-09-08T22:16:32.358Z,16.77
2023-09-08T22:18:58.887Z,15.43
2023-09-08T22:21:25.458Z,16.83
2023-09-08T22:23:52.191Z,17.33
2023-09-08T22:26:20.063Z,15.48
2023-09-08T22:28:50.442Z,17.70
2023-09-08T22:31:17.226Z,17.73
2023-09-08T22:33:44.200Z,15.82
2023-09-08T22:36:11.118Z,18.13
2023-09-08T22:38:37.750Z,15.10
2023-09-08T22:41:04.305Z,13.48
2023-09-08T22:43:30.788Z,16.45
2023-09-08T22:45:57.396Z,16.63
2023-09-08T22:48:23.984Z,12.15
2023-09-08T22:50:50.985Z,16.63
2023-09-08T22:53:18.446Z,14.70
2023-09-08T22:55:45.382Z,16.50
2023-09-08T22:58:16.130Z,14.00
2023-09-08T23:00:42.811Z,15.23
2023-09-08T23:03:09.471Z,15.13
2023-09-08T23:05:36.151Z,13.40
2023-09-08T23:08:02.745Z,15.43
2023-09-08T23:10:29.321Z,13.00
2023-09-08T23:12:56.084Z,14.30
2023-09-08T23:15:23.099Z,14.52
2023-09-08T23:17:49.741Z,12.23
2023-09-08T23:20:16.512Z,18.02
2023-09-08T23:22:44.377Z,17.98
2023-09-08T23:25:11.098Z,13.60
2023-09-08T23:27:37.833Z,13.23
2023-09-08T23:30:05.125Z,12.32
2023-09-08T23:32:31.676Z,11.70
2023-09-08T23:34:59.866Z,18.67
2023-09-08T23:37:26.433Z,13.73
2023-09-08T23:39:53.079Z,15.23
2023-09-08T23:42:19.626Z,13.80
2023-09-08T23:44:46.186Z,15.48
2023-09-08T23:47:12.748Z,12.38
2023-09-08T23:49:39.304Z,13.85
2023-09-08T23:52:05.847Z,16.48
2023-09-08T23:54:32.381Z,12.57
2023-09-08T23:56:59.097Z,10.75
2023-09-08T23:59:25.876Z,16.08
